Time;durP1;ratioP1;P1;durP2;ratioP2;P2;SDS_P1;SDS_P2;PMS_P1;PMS_P2;Temp;Humidity;BMP_temperature;BMP_pressure;BME280_temperature;BME280_humidity;BME280_pressure;Samples;Min_cycle;Max_cycle;Signal;HPM_P1;HPM_P2
2024/01/15 00:01:48;;;;;;;1.20;1.20;;;4.80;99.90;;;;;;4977670;28;20053;-89
2024/01/15 00:04:15;;;;;;;1.10;1.10;;;5.00;99.90;;;;;;4994909;28;20542;-89
2024/01/15 00:06:41;;;;;;;1.20;1.20;;;4.90;99.90;;;;;;4996661;28;20046;-89
2024/01/15 00:09:06;;;;;;;1.10;1.10;;;4.80;99.90;;;;;;4996963;28;20129;-90
2024/01/15 00:11:32;;;;;;;1.20;1.20;;;4.90;99.90;;;;;;4994148;28;20056;-89
2024/01/15 00:13:58;;;;;;;1.20;1.20;;;4.90;99.90;;;;;;4982649;28;20566;-89
2024/01/15 00:16:24;;;;;;;1.20;1.20;;;4.60;99.90;;;;;;4997472;28;20179;-89
2024/01/15 00:18:50;;;;;;;1.20;1.20;;;4.70;99.90;;;;;;4979971;28;20096;-88
2024/01/15 00:21:15;;;;;;;1.20;1.20;;;4.70;99.90;;;;;;4978827;28;20514;-91
2024/01/15 00:23:45;;;;;;;1.27;1.27;;;4.70;99.90;;;;;;4976429;28;20034;-91
2024/01/15 00:26:11;;;;;;;1.23;1.23;;;4.50;99.90;;;;;;4979393;28;20038;-89
2024/01/15 00:28:37;;;;;;;1.20;1.20;;;4.80;99.90;;;;;;4993253;28;20125;-91
2024/01/15 00:31:06;;;;;;;1.20;1.20;;;4.60;99.90;;;;;;4979404;28;20077;-90
2024/01/15 00:33:32;;;;;;;1.30;1.30;;;4.70;99.90;;;;;;4992558;28;20046;-91
2024/01/15 00:35:58;;;;;;;1.20;1.20;;;4.80;99.90;;;;;;4979459;28;20084;-91
2024/01/15 00:38:23;;;;;;;1.10;1.10;;;4.70;99.90;;;;;;4993370;28;20046;-90
2024/01/15 00:40:49;;;;;;;1.10;1.10;;;4.70;99.90;;;;;;4980380;28;20045;-90
2024/01/15 00:43:18;;;;;;;1.20;1.20;;;4.60;99.90;;;;;;4980269;28;20141;-91
2024/01/15 00:45:43;;;;;;;1.20;1.20;;;4.60;99.90;;;;;;4976958;28;20041;-90
2024/01/15 00:48:09;;;;;;;1.27;1.27;;;4.80;99.90;;;;;;4977157;28;20121;-89
2024/01/15 00:50:35;;;;;;;1.27;1.27;;;4.70;99.90;;;;;;4980559;28;20053;-91
2024/01/15 00:53:00;;;;;;;1.20;1.20;;;4.70;99.90;;;;;;4995001;28;20089;-91
2024/01/15 00:55:28;;;;;;;1.20;1.20;;;4.80;99.90;;;;;;4981270;28;20048;-91
2024/01/15 00:57:54;;;;;;;1.20;1.20;;;4.80;99.90;;;;;;4979880;28;20076;-90
2024/01/15 01:00:20;;;;;;;1.30;1.30;;;4.70;99.90;;;;;;4979691;28;20081;-91
2024/01/15 01:02:45;;;;;;;1.20;1.20;;;4.90;99.90;;;;;;4994705;28;20054;-89
2024/01/15 01:05:11;;;;;;;1.20;1.20;;;4.70;99.90;;;;;;5010356;28;20129;-90
2024/01/15 01:07:37;;;;;;;1.20;1.20;;;4.90;99.90;;;;;;4979957;28;20036;-90
2024/01/15 01:10:03;;;;;;;1.20;1.20;;;4.90;99.90;;;;;;4995366;28;20042;-90
2024/01/15 01:12:29;;;;;;;1.20;1.20;;;4.70;99.90;;;;;;4978400;28;20057;-91
2024/01/15 01:14:55;;;;;;;1.20;1.20;;;4.70;99.90;;;;;;4979208;28;20034;-91
2024/01/15 01:17:22;;;;;;;1.25;1.25;;;4.80;99.90;;;;;;4976833;28;20042;-91
2024/01/15 01:19:48;;;;;;;1.30;1.30;;;4.90;99.90;;;;;;4978216;28;20466;-90
2024/01/15 01:22:13;;;;;;;1.50;1.40;;;4.90;99.90;;;;;;4980428;28;20057;-90
2024/01/15 01:24:39;;;;;;;1.20;1.20;;;4.90;99.90;;;;;;4976803;28;20049;-91
2024/01/15 01:27:05;;;;;;;1.20;1.20;;;5.00;99.90;;;;;;4993441;28;20049;-89
2024/01/15 01:29:30;;;;;;;1.20;1.20;;;4.90;99.90;;;;;;4975387;28;20046;-91
2024/01/15 01:31:59;;;;;;;1.20;1.20;;;5.00;99.90;;;;;;4976449;28;20061;-91
2024/01/15 01:34:24;;;;;;;1.20;1.20;;;4.90;99.90;;;;;;4979369;28;20495;-89
2024/01/15 01:36:50;;;;;;;1.20;1.20;;;5.10;99.90;;;;;;4995302;28;20373;-89
2024/01/15 01:39:16;;;;;;;1.30;1.30;;;5.00;99.90;;;;;;4981378;28;20034;-89
2024/01/15 01:41:41;;;;;;;1.20;1.20;;;5.00;99.90;;;;;;4978278;28;20042;-90
2024/01/15 01:44:07;;;;;;;1.25;1.25;;;5.10;99.90;;;;;;4978365;28;20052;-91
2024/01/15 01:46:34;;;;;;;1.20;1.20;;;5.00;99.90;;;;;;4993693;28;20120;-88
2024/01/15 01:49:05;;;;;;;1.27;1.27;;;5.10;99.90;;;;;;4977365;28;20514;-89
2024/01/15 01:51:31;;;;;;;1.30;1.30;;;5.00;99.90;;;;;;4975181;28;20111;-89
2024/01/15 01:53:57;;;;;;;1.30;1.30;;;5.20;99.90;;;;;;4995144;28;20096;-89
2024/01/15 01:56:23;;;;;;;1.30;1.30;;;5.20;99.90;;;;;;4993421;28;20049;-89
2024/01/15 01:58:49;;;;;;;1.25;1.25;;;5.20;99.90;;;;;;4993789;28;20778;-89
2024/01/15 02:01:15;;;;;;;1.30;1.30;;;5.20;99.90;;;;;;4989322;28;20454;-89
2024/01/15 02:03:41;;;;;;;1.27;1.27;;;5.10;99.90;;;;;;4991534;28;20389;-90
2024/01/15 02:06:07;;;;;;;1.20;1.20;;;5.10;99.90;;;;;;4991957;28;20051;-90
2024/01/15 02:08:34;;;;;;;1.20;1.20;;;5.10;99.90;;;;;;4992630;28;20049;-88
2024/01/15 02:11:00;;;;;;;1.23;1.23;;;4.90;99.90;;;;;;4991082;28;20056;-88
2024/01/15 02:13:26;;;;;;;1.30;1.30;;;5.00;99.90;;;;;;4990896;28;20394;-88
2024/01/15 02:15:52;;;;;;;1.30;1.30;;;4.70;99.90;;;;;;4989190;28;20037;-87
2024/01/15 02:18:17;;;;;;;1.20;1.20;;;4.90;99.90;;;;;;4988002;28;20073;-87
2024/01/15 02:20:44;;;;;;;1.30;1.30;;;4.90;99.90;;;;;;4990099;28;20046;-87
2024/01/15 02:23:10;;;;;;;1.20;1.20;;;4.70;99.90;;;;;;4990180;28;20049;-88
2024/01/15 02:25:44;;;;;;;1.20;1.20;;;4.50;99.90;;;;;;4989262;28;20053;-87
2024/01/15 02:28:14;;;;;;;1.20;1.20;;;4.40;99.90;;;;;;4991611;28;20049;-87
2024/01/15 02:30:41;;;;;;;1.20;1.20;;;4.50;99.90;;;;;;4989436;28;20042;-87
2024/01/15 02:33:07;;;;;;;1.20;1.20;;;4.40;99.90;;;;;;4987738;28;20557;-87
2024/01/15 02:35:36;;;;;;;1.20;1.20;;;4.70;99.90;;;;;;4989878;28;20052;-88
2024/01/15 02:38:02;;;;;;;1.35;1.33;;;4.40;99.90;;;;;;4988463;28;20467;-86
2024/01/15 02:40:28;;;;;;;1.20;1.20;;;4.90;99.90;;;;;;4972647;28;20132;-87
2024/01/15 02:42:54;;;;;;;1.25;1.25;;;4.60;99.90;;;;;;4973951;28;20153;-86
2024/01/15 02:45:21;;;;;;;1.23;1.23;;;4.60;99.90;;;;;;4970059;28;20134;-88
2024/01/15 02:47:47;;;;;;;1.20;1.20;;;5.00;99.90;;;;;;4987056;28;20066;-87
2024/01/15 02:50:13;;;;;;;1.30;1.30;;;4.70;99.90;;;;;;4988734;28;20173;-86
2024/01/15 02:52:39;;;;;;;1.30;1.30;;;5.20;99.90;;;;;;4973236;28;20787;-88
2024/01/15 02:55:05;;;;;;;1.20;1.20;;;5.20;99.90;;;;;;4988064;28;20046;-87
2024/01/15 02:57:30;;;;;;;1.20;1.20;;;4.80;99.90;;;;;;4984473;28;20046;-87
2024/01/15 02:59:56;;;;;;;1.20;1.20;;;5.00;99.90;;;;;;4973232;28;20046;-87
2024/01/15 03:02:22;;;;;;;1.20;1.20;;;5.10;99.90;;;;;;4987530;28;20153;-86
2024/01/15 03:04:50;;;;;;;1.20;1.20;;;5.10;99.90;;;;;;4991365;28;20045;-88
2024/01/15 03:07:17;;;;;;;1.20;1.20;;;5.10;99.90;;;;;;4972875;28;20042;-86
2024/01/15 03:09:43;;;;;;;1.20;1.20;;;4.80;99.90;;;;;;4988788;28;20042;-87
2024/01/15 03:12:09;;;;;;;1.25;1.25;;;4.80;99.90;;;;;;4987872;28;20048;-87
2024/01/15 03:14:35;;;;;;;1.20;1.20;;;5.10;99.90;;;;;;4988705;28;20180;-87
2024/01/15 03:17:04;;;;;;;1.10;1.10;;;4.90;99.90;;;;;;4985182;28;20048;-86
2024/01/15 03:19:30;;;;;;;1.10;1.10;;;5.00;99.90;;;;;;4988858;28;20053;-88
2024/01/15 03:21:56;;;;;;;1.30;1.30;;;5.10;99.90;;;;;;4987544;28;20376;-86
2024/01/15 03:24:22;;;;;;;1.30;1.30;;;4.90;99.90;;;;;;4984628;28;20116;-86
2024/01/15 03:26:48;;;;;;;1.20;1.20;;;5.30;99.90;;;;;;4986254;28;20491;-88
2024/01/15 03:29:13;;;;;;;1.20;1.20;;;4.90;99.90;;;;;;4972490;28;20054;-87
2024/01/15 03:31:39;;;;;;;1.20;1.20;;;5.20;99.90;;;;;;4969228;28;20050;-87
2024/01/15 03:34:05;;;;;;;1.20;1.20;;;4.80;99.90;;;;;;4986225;28;20046;-86
2024/01/15 03:36:30;;;;;;;1.20;1.20;;;5.20;99.90;;;;;;4986683;28;20038;-86
2024/01/15 03:38:56;;;;;;;1.20;1.20;;;4.90;99.90;;;;;;4989298;28;20765;-87
2024/01/15 03:41:21;;;;;;;1.50;1.40;;;5.10;99.90;;;;;;4971182;28;20446;-87
2024/01/15 03:43:47;;;;;;;1.20;1.20;;;5.00;99.90;;;;;;4971577;28;20439;-88
2024/01/15 03:46:13;;;;;;;1.30;1.30;;;4.60;99.90;;;;;;4989776;28;20065;-87
2024/01/15 03:48:38;;;;;;;1.30;1.30;;;4.50;99.90;;;;;;5006626;28;20037;-87
2024/01/15 03:51:04;;;;;;;1.23;1.23;;;4.60;99.90;;;;;;4988926;28;20037;-88
2024/01/15 03:53:30;;;;;;;1.27;1.27;;;4.40;99.90;;;;;;4971528;28;20053;-87
2024/01/15 03:55:56;;;;;;;1.20;1.20;;;4.70;99.90;;;;;;4988945;28;20049;-88
2024/01/15 03:58:22;;;;;;;1.30;1.30;;;4.80;99.90;;;;;;4973132;28;20049;-87
2024/01/15 04:00:47;;;;;;;1.30;1.30;;;4.90;99.90;;;;;;4991452;28;20580;-88
2024/01/15 04:03:13;;;;;;;1.30;1.30;;;4.60;99.90;;;;;;4989146;28;20077;-87
2024/01/15 04:05:39;;;;;;;1.30;1.30;;;4.90;99.90;;;;;;4991354;28;20113;-87
2024/01/15 04:08:05;;;;;;;1.30;1.30;;;4.90;99.90;;;;;;4991490;28;20046;-87
2024/01/15 04:10:31;;;;;;;1.50;1.40;;;4.70;99.90;;;;;;4990254;28;20073;-88
2024/01/15 04:12:59;;;;;;;1.30;1.30;;;4.80;99.90;;;;;;4989362;28;20046;-87
2024/01/15 04:15:25;;;;;;;1.48;1.38;;;4.70;99.90;;;;;;4991449;28;20056;-88
2024/01/15 04:17:51;;;;;;;1.30;1.30;;;5.10;99.90;;;;;;4990969;28;20045;-87
2024/01/15 04:20:17;;;;;;;1.25;1.25;;;5.10;99.90;;;;;;4993673;28;20491;-87
2024/01/15 04:22:44;;;;;;;1.30;1.30;;;5.20;99.90;;;;;;4991822;28;20050;-89
2024/01/15 04:25:09;;;;;;;1.30;1.30;;;5.20;99.90;;;;;;4992098;28;20392;-87
2024/01/15 04:27:35;;;;;;;1.20;1.20;;;5.00;99.90;;;;;;4988294;28;20080;-87
2024/01/15 04:30:01;;;;;;;1.30;1.30;;;5.20;99.90;;;;;;4988470;28;20100;-87
2024/01/15 04:32:26;;;;;;;1.20;1.20;;;5.10;99.90;;;;;;4990272;28;20045;-88
2024/01/15 04:34:52;;;;;;;1.27;1.27;;;5.20;99.90;;;;;;4993260;28;20042;-87
2024/01/15 04:37:18;;;;;;;1.20;1.20;;;5.20;99.90;;;;;;4974807;28;20038;-87
2024/01/15 04:39:43;;;;;;;1.20;1.20;;;5.20;99.90;;;;;;4988403;28;20132;-87
2024/01/15 04:42:09;;;;;;;1.27;1.27;;;5.00;99.90;;;;;;4991712;28;20037;-88
2024/01/15 04:44:35;;;;;;;1.48;1.40;;;4.70;99.90;;;;;;5009018;28;20054;-87
2024/01/15 04:47:00;;;;;;;1.30;1.30;;;5.00;99.90;;;;;;4990170;28;20125;-87
2024/01/15 04:49:27;;;;;;;1.17;1.17;;;5.00;99.90;;;;;;4990186;28;20621;-88
2024/01/15 04:51:53;;;;;;;1.23;1.23;;;4.80;99.90;;;;;;4989892;28;20050;-87
2024/01/15 04:54:18;;;;;;;1.27;1.27;;;5.30;99.90;;;;;;4988265;28;20053;-88
2024/01/15 04:56:44;;;;;;;1.33;1.33;;;5.00;99.90;;;;;;4990048;28;20125;-87
2024/01/15 04:59:10;;;;;;;1.10;1.10;;;4.90;99.90;;;;;;4989553;28;20557;-87
2024/01/15 05:01:36;;;;;;;1.20;1.20;;;5.20;99.90;;;;;;4988942;28;20060;-86
2024/01/15 05:04:02;;;;;;;1.30;1.30;;;5.10;99.90;;;;;;4986660;28;20400;-87
2024/01/15 05:06:28;;;;;;;1.10;1.10;;;4.90;99.90;;;;;;4975903;28;20038;-87
2024/01/15 05:08:53;;;;;;;1.30;1.30;;;5.00;99.90;;;;;;4985477;28;20057;-86
2024/01/15 05:11:19;;;;;;;1.20;1.20;;;4.90;99.90;;;;;;4993308;28;20046;-88
2024/01/15 05:13:45;;;;;;;1.20;1.20;;;4.90;99.90;;;;;;4993652;28;20038;-88
2024/01/15 05:16:10;;;;;;;1.20;1.20;;;5.20;99.90;;;;;;4987760;28;20068;-87
2024/01/15 05:18:39;;;;;;;1.30;1.30;;;5.20;99.90;;;;;;4990379;28;20049;-87
2024/01/15 05:21:04;;;;;;;1.30;1.30;;;5.20;99.90;;;;;;4991575;28;20050;-87
2024/01/15 05:23:31;;;;;;;1.20;1.20;;;4.90;99.90;;;;;;4991664;28;20042;-88
2024/01/15 05:26:00;;;;;;;1.17;1.17;;;4.80;99.90;;;;;;4971368;28;20042;-88
2024/01/15 05:28:26;;;;;;;1.20;1.20;;;5.20;99.90;;;;;;4991894;28;20042;-87
2024/01/15 05:30:52;;;;;;;1.20;1.20;;;5.10;99.90;;;;;;4973009;28;20041;-87
2024/01/15 05:33:18;;;;;;;1.23;1.23;;;5.00;99.90;;;;;;4973503;28;20455;-87
2024/01/15 05:35:44;;;;;;;1.20;1.20;;;5.10;99.90;;;;;;4974420;28;20050;-87
2024/01/15 05:38:09;;;;;;;1.20;1.20;;;5.00;99.90;;;;;;4990035;28;20060;-88
2024/01/15 05:40:35;;;;;;;1.20;1.20;;;5.00;99.90;;;;;;4973445;28;20103;-87
2024/01/15 05:43:00;;;;;;;1.20;1.20;;;4.90;99.90;;;;;;4991362;28;20081;-88
2024/01/15 05:45:27;;;;;;;1.25;1.25;;;5.00;99.90;;;;;;4990428;28;20041;-87
2024/01/15 05:47:52;;;;;;;1.10;1.10;;;4.60;99.90;;;;;;4989431;28;20050;-88
2024/01/15 05:50:18;;;;;;;1.20;1.20;;;4.80;99.90;;;;;;4989408;28;20053;-87
2024/01/15 05:52:44;;;;;;;1.33;1.30;;;4.90;99.90;;;;;;4986731;28;20045;-87
2024/01/15 05:55:09;;;;;;;1.15;1.15;;;4.40;99.90;;;;;;4988962;28;20072;-89
2024/01/15 05:57:36;;;;;;;1.30;1.30;;;4.50;99.90;;;;;;4989096;28;20534;-89
2024/01/15 06:00:02;;;;;;;1.20;1.20;;;4.60;99.90;;;;;;4990855;28;20445;-88
2024/01/15 06:02:28;;;;;;;1.30;1.30;;;4.30;99.90;;;;;;4986527;28;20057;-88
2024/01/15 06:04:54;;;;;;;1.25;1.25;;;4.50;99.90;;;;;;4975092;28;20053;-88
2024/01/15 06:07:19;;;;;;;1.50;1.40;;;4.80;99.90;;;;;;4989398;28;20129;-88
2024/01/15 06:09:45;;;;;;;1.20;1.20;;;4.60;99.90;;;;;;4988418;28;20747;-90
2024/01/15 06:12:11;;;;;;;1.20;1.20;;;4.80;99.90;;;;;;4975266;28;20064;-88
2024/01/15 06:14:36;;;;;;;1.10;1.10;;;4.90;99.90;;;;;;4976100;28;20050;-88
2024/01/15 06:17:02;;;;;;;1.20;1.20;;;4.70;99.90;;;;;;4989078;28;20140;-88
2024/01/15 06:19:28;;;;;;;1.27;1.27;;;5.00;99.90;;;;;;4987870;28;20467;-88
2024/01/15 06:21:54;;;;;;;1.20;1.20;;;5.00;99.90;;;;;;4975608;28;20037;-87
2024/01/15 06:24:20;;;;;;;1.20;1.20;;;4.90;99.90;;;;;;4990893;28;20180;-88
2024/01/15 06:26:46;;;;;;;1.30;1.30;;;4.60;99.90;;;;;;4991521;28;20057;-87
2024/01/15 06:29:12;;;;;;;1.25;1.25;;;4.90;99.90;;;;;;4988996;28;20054;-87
2024/01/15 06:31:38;;;;;;;1.30;1.30;;;5.10;99.90;;;;;;4988448;28;20046;-87
2024/01/15 06:34:04;;;;;;;1.20;1.20;;;5.00;99.90;;;;;;4987806;28;20092;-88
2024/01/15 06:36:29;;;;;;;1.30;1.30;;;4.40;99.90;;;;;;4989518;28;20046;-88
2024/01/15 06:38:55;;;;;;;1.30;1.30;;;4.90;99.90;;;;;;4971414;28;20492;-88
2024/01/15 06:41:21;;;;;;;1.20;1.20;;;4.60;99.90;;;;;;4990048;28;20054;-87
2024/01/15 06:43:48;;;;;;;1.25;1.25;;;4.40;99.90;;;;;;4974578;28;20511;-88
2024/01/15 06:46:22;;;;;;;1.20;1.20;;;4.70;99.90;;;;;;4989098;28;20046;-87
2024/01/15 06:48:48;;;;;;;1.27;1.27;;;4.80;99.90;;;;;;4988101;28;20042;-88
2024/01/15 06:51:15;;;;;;;1.20;1.20;;;4.40;99.90;;;;;;4992614;28;20076;-88
2024/01/15 06:53:41;;;;;;;1.20;1.20;;;4.70;99.90;;;;;;4973553;28;20065;-87
2024/01/15 06:56:06;;;;;;;1.20;1.20;;;4.20;99.90;;;;;;4987951;28;20034;-87
2024/01/15 06:58:32;;;;;;;1.20;1.20;;;4.90;99.90;;;;;;4975505;28;20045;-88
2024/01/15 07:00:58;;;;;;;1.25;1.25;;;4.70;99.90;;;;;;4987339;28;20050;-88
2024/01/15 07:03:24;;;;;;;1.25;1.25;;;4.60;99.90;;;;;;4972256;28;20124;-89
2024/01/15 07:05:49;;;;;;;1.20;1.20;;;4.70;99.90;;;;;;4990279;28;20046;-89
2024/01/15 07:08:15;;;;;;;1.30;1.30;;;4.60;99.90;;;;;;4989895;28;20073;-88
2024/01/15 07:10:41;;;;;;;1.30;1.30;;;4.50;99.90;;;;;;4973468;28;20053;-88
2024/01/15 07:13:07;;;;;;;1.30;1.30;;;4.40;99.90;;;;;;5008894;28;20041;-90
2024/01/15 07:15:32;;;;;;;1.20;1.20;;;4.50;99.90;;;;;;4974973;28;20046;-88
2024/01/15 07:17:58;;;;;;;1.25;1.25;;;4.30;99.90;;;;;;4991343;28;20039;-89
2024/01/15 07:20:24;;;;;;;1.23;1.23;;;4.80;99.90;;;;;;4991905;28;20054;-89
2024/01/15 07:22:49;;;;;;;1.33;1.33;;;4.00;99.90;;;;;;4972523;28;20592;-86
2024/01/15 07:25:16;;;;;;;1.20;1.20;;;4.00;99.90;;;;;;4971142;28;20042;-88
2024/01/15 07:27:44;;;;;;;1.30;1.30;;;3.80;99.90;;;;;;4975370;28;20054;-88
2024/01/15 07:30:11;;;;;;;1.23;1.23;;;4.70;99.90;;;;;;4993288;28;20073;-89
2024/01/15 07:32:37;;;;;;;1.35;1.33;;;3.90;99.90;;;;;;4995520;28;20053;-87
2024/01/15 07:35:03;;;;;;;1.33;1.33;;;4.50;99.90;;;;;;4976161;28;20526;-89
2024/01/15 07:37:29;;;;;;;1.30;1.30;;;4.60;99.90;;;;;;4983976;28;20485;-88
2024/01/15 07:39:54;;;;;;;1.45;1.40;;;4.80;99.90;;;;;;4978202;28;20128;-88
2024/01/15 07:42:20;;;;;;;1.23;1.23;;;4.90;99.90;;;;;;4981738;28;20037;-87
2024/01/15 07:44:46;;;;;;;1.50;1.40;;;4.10;99.90;;;;;;4979590;28;20466;-87
2024/01/15 07:47:12;;;;;;;1.23;1.23;;;4.50;99.90;;;;;;4994789;28;20503;-89
2024/01/15 07:49:38;;;;;;;1.30;1.30;;;4.70;99.90;;;;;;4993453;28;20058;-89
2024/01/15 07:52:05;;;;;;;1.30;1.30;;;4.90;99.90;;;;;;4978534;28;20076;-88
2024/01/15 07:54:31;;;;;;;1.25;1.25;;;4.00;99.90;;;;;;4979903;28;20037;-87
2024/01/15 07:56:59;;;;;;;1.20;1.20;;;4.90;99.90;;;;;;4990237;28;20038;-88
2024/01/15 07:59:25;;;;;;;1.30;1.30;;;4.70;99.90;;;;;;4991623;28;20507;-88
2024/01/15 08:01:52;;;;;;;1.27;1.27;;;4.80;99.90;;;;;;4978516;28;20495;-88
2024/01/15 08:04:18;;;;;;;1.20;1.20;;;4.80;99.90;;;;;;4977498;28;20064;-88
2024/01/15 08:06:43;;;;;;;1.30;1.30;;;4.10;99.90;;;;;;4996795;28;20550;-91
2024/01/15 08:09:09;;;;;;;1.25;1.25;;;4.10;99.90;;;;;;4982726;28;20038;-88
2024/01/15 08:11:35;;;;;;;1.45;1.40;;;4.90;99.90;;;;;;4981939;28;20052;-88
2024/01/15 08:14:01;;;;;;;1.30;1.30;;;4.90;99.90;;;;;;4979253;28;20034;-88
2024/01/15 08:16:27;;;;;;;1.27;1.27;;;3.90;99.90;;;;;;4995727;28;20041;-88
2024/01/15 08:18:53;;;;;;;1.25;1.25;;;3.90;99.90;;;;;;4996370;28;20041;-91
2024/01/15 08:21:19;;;;;;;1.30;1.30;;;4.30;99.90;;;;;;4980197;28;20046;-88
2024/01/15 08:23:45;;;;;;;1.20;1.20;;;4.00;99.90;;;;;;4978898;28;20610;-88
2024/01/15 08:26:11;;;;;;;1.30;1.30;;;4.20;99.90;;;;;;4980594;28;20411;-90
2024/01/15 08:28:37;;;;;;;1.30;1.30;;;4.10;99.90;;;;;;4979838;28;20045;-89
2024/01/15 08:31:02;;;;;;;1.30;1.30;;;4.10;99.90;;;;;;4994384;28;20053;-89
2024/01/15 08:33:29;;;;;;;1.40;1.40;;;4.90;99.90;;;;;;4978804;28;20045;-90
2024/01/15 08:35:55;;;;;;;1.30;1.30;;;4.40;99.90;;;;;;4977701;28;20064;-87
2024/01/15 08:38:20;;;;;;;1.20;1.20;;;4.80;99.90;;;;;;4993926;28;20543;-89
2024/01/15 08:40:46;;;;;;;1.30;1.30;;;4.20;99.90;;;;;;4994385;28;20408;-88
2024/01/15 08:43:12;;;;;;;1.30;1.30;;;4.40;99.90;;;;;;4983025;28;20480;-90
2024/01/15 08:45:41;;;;;;;1.40;1.40;;;4.60;99.90;;;;;;4981343;28;20052;-88
2024/01/15 08:48:06;;;;;;;1.30;1.30;;;4.70;99.90;;;;;;4994579;28;20064;-90
2024/01/15 08:50:33;;;;;;;1.30;1.30;;;5.10;99.90;;;;;;4979560;28;20045;-88
2024/01/15 08:52:59;;;;;;;1.25;1.25;;;4.90;99.90;;;;;;4979442;28;20046;-88
2024/01/15 08:55:24;;;;;;;1.20;1.20;;;5.00;99.90;;;;;;4974626;28;20042;-89
2024/01/15 08:57:50;;;;;;;1.30;1.30;;;4.90;99.90;;;;;;4993318;28;20049;-89
2024/01/15 09:00:17;;;;;;;1.30;1.30;;;5.20;99.90;;;;;;4973757;28;20054;-88
2024/01/15 09:02:43;;;;;;;1.25;1.25;;;5.30;99.90;;;;;;4989776;28;20054;-88
2024/01/15 09:05:09;;;;;;;1.60;1.50;;;5.20;99.90;;;;;;4987873;28;20507;-87
2024/01/15 09:07:35;;;;;;;1.50;1.40;;;5.10;99.90;;;;;;4991983;28;20053;-86
2024/01/15 09:10:01;;;;;;;1.33;1.30;;;5.00;99.90;;;;;;4974068;28;20046;-87
2024/01/15 09:12:27;;;;;;;1.30;1.30;;;5.20;99.90;;;;;;4989780;28;20065;-86
2024/01/15 09:14:53;;;;;;;1.35;1.35;;;4.90;99.90;;;;;;4988882;28;20049;-87
2024/01/15 09:17:20;;;;;;;1.30;1.30;;;5.10;99.90;;;;;;4991134;28;20037;-87
2024/01/15 09:19:46;;;;;;;1.48;1.38;;;5.20;99.90;;;;;;4988981;28;20049;-88
2024/01/15 09:22:14;;;;;;;1.27;1.27;;;5.20;99.90;;;;;;4972309;28;20045;-85
2024/01/15 09:24:41;;;;;;;1.30;1.30;;;5.50;99.90;;;;;;4992402;28;20049;-87
2024/01/15 09:27:07;;;;;;;1.30;1.30;;;5.50;99.90;;;;;;4993485;28;20407;-89
2024/01/15 09:29:33;;;;;;;1.55;1.45;;;5.20;99.90;;;;;;4980074;28;20053;-88
2024/01/15 09:31:58;;;;;;;1.30;1.30;;;5.30;99.90;;;;;;4993652;28;20074;-89
2024/01/15 09:34:24;;;;;;;1.30;1.30;;;5.20;99.90;;;;;;4977644;28;20034;-87
2024/01/15 09:36:50;;;;;;;1.40;1.35;;;5.10;99.90;;;;;;4992941;28;20455;-87
2024/01/15 09:39:16;;;;;;;1.38;1.35;;;5.20;99.90;;;;;;4991779;28;20049;-87
2024/01/15 09:41:43;;;;;;;1.35;1.30;;;5.50;99.90;;;;;;4993207;28;20048;-87
2024/01/15 09:44:10;;;;;;;1.27;1.27;;;5.40;99.90;;;;;;4988377;28;20077;-87
2024/01/15 09:46:36;;;;;;;1.38;1.33;;;5.80;99.90;;;;;;4992940;28;20701;-87
2024/01/15 09:49:02;;;;;;;1.60;1.50;;;5.90;99.90;;;;;;4990389;28;20126;-87
2024/01/15 09:51:33;;;;;;;1.33;1.30;;;5.80;99.90;;;;;;4987801;28;20180;-87
2024/01/15 09:53:58;;;;;;;1.50;1.40;;;5.50;99.90;;;;;;4992175;28;20060;-87
2024/01/15 09:56:24;;;;;;;1.33;1.33;;;5.40;99.90;;;;;;4987446;28;20045;-87
2024/01/15 09:58:53;;;;;;;1.50;1.40;;;5.30;99.90;;;;;;4992736;28;20054;-87
2024/01/15 10:01:20;;;;;;;1.30;1.30;;;5.10;99.90;;;;;;4988383;28;20526;-86
2024/01/15 10:03:46;;;;;;;1.23;1.23;;;5.10;99.90;;;;;;4988225;28;20054;-87
2024/01/15 10:06:19;;;;;;;1.50;1.40;;;5.20;99.90;;;;;;4973111;28;20551;-86
2024/01/15 10:08:49;;;;;;;1.50;1.40;;;5.30;99.90;;;;;;4975454;28;20866;-88
2024/01/15 10:11:16;;;;;;;1.50;1.40;;;5.40;99.90;;;;;;4994042;28;20464;-87
2024/01/15 10:13:44;;;;;;;1.58;1.48;;;5.40;99.90;;;;;;4992436;28;20128;-88
2024/01/15 10:16:10;;;;;;;1.50;1.40;;;5.60;99.90;;;;;;4974147;28;20034;-88
2024/01/15 10:18:36;;;;;;;1.58;1.48;;;5.50;99.90;;;;;;4992936;28;20140;-88
2024/01/15 10:21:03;;;;;;;1.50;1.40;;;5.40;99.90;;;;;;4976233;28;20066;-89
2024/01/15 10:23:31;;;;;;;1.60;1.50;;;5.50;99.90;;;;;;4992264;28;20700;-87
2024/01/15 10:25:58;;;;;;;1.58;1.48;;;5.60;99.90;;;;;;4990861;28;20631;-88
2024/01/15 10:28:26;;;;;;;1.58;1.48;;;5.60;99.90;;;;;;4976219;28;20038;-88
2024/01/15 10:30:57;;;;;;;1.50;1.40;;;5.70;99.90;;;;;;4975465;28;20060;-87
2024/01/15 10:33:26;;;;;;;1.20;1.20;;;5.50;99.90;;;;;;4977473;28;20050;-87
2024/01/15 10:35:56;;;;;;;1.58;1.48;;;5.70;99.90;;;;;;4992375;28;20042;-87
2024/01/15 10:38:23;;;;;;;1.55;1.45;;;5.80;99.90;;;;;;4977116;28;20496;-87
2024/01/15 10:40:53;;;;;;;1.60;1.50;;;6.00;99.90;;;;;;4992592;28;20100;-86
2024/01/15 10:43:19;;;;;;;1.50;1.40;;;5.80;99.90;;;;;;4976088;28;20038;-89
2024/01/15 10:45:45;;;;;;;1.58;1.48;;;5.90;99.90;;;;;;4992571;28;20045;-87
2024/01/15 10:48:12;;;;;;;1.67;1.58;;;5.90;99.90;;;;;;4977836;28;20113;-88
2024/01/15 10:50:37;;;;;;;1.50;1.40;;;6.00;99.90;;;;;;5008762;28;20046;-88
2024/01/15 10:53:04;;;;;;;1.38;1.38;;;5.80;99.90;;;;;;4991258;28;20053;-87
2024/01/15 10:55:32;;;;;;;1.60;1.50;;;5.60;99.90;;;;;;5006890;28;20062;-87
2024/01/15 10:57:58;;;;;;;1.50;1.40;;;5.70;99.90;;;;;;4991958;28;20228;-87
2024/01/15 11:00:25;;;;;;;1.55;1.45;;;5.60;99.90;;;;;;4991949;28;20041;-87
2024/01/15 11:02:51;;;;;;;1.50;1.40;;;5.50;99.90;;;;;;4993731;28;20116;-87
2024/01/15 11:05:41;;;;;;;1.50;1.40;;;5.50;99.90;;;;;;4975400;28;20462;-87
2024/01/15 11:08:08;;;;;;;1.50;1.40;;;5.60;99.90;;;;;;4991275;28;20038;-89
2024/01/15 11:10:43;;;;;;;1.50;1.40;;;5.80;99.90;;;;;;4990647;28;20124;-87
2024/01/15 11:13:33;;;;;;;1.50;1.40;;;5.70;99.90;;;;;;4989388;28;20046;-89
2024/01/15 11:16:01;;;;;;;1.50;1.40;;;5.70;99.90;;;;;;4990469;28;20076;-89
2024/01/15 11:18:31;;;;;;;1.50;1.40;;;5.70;99.90;;;;;;4993130;28;20510;-88
2024/01/15 11:21:15;;;;;;;1.50;1.40;;;5.60;99.90;;;;;;4988031;28;20088;-88
2024/01/15 11:23:57;;;;;;;1.50;1.40;;;5.60;99.90;;;;;;4988613;28;20096;-87
2024/01/15 11:26:43;;;;;;;1.50;1.40;;;5.80;99.90;;;;;;4974032;28;20208;-88
2024/01/15 11:29:27;;;;;;;1.50;1.40;;;5.80;99.90;;;;;;4989256;28;20054;-90
2024/01/15 11:32:02;;;;;;;1.33;1.30;;;6.00;99.90;;;;;;4988014;28;20133;-88
2024/01/15 11:34:57;;;;;;;1.50;1.40;;;6.00;99.90;;;;;;4989340;28;20472;-87
2024/01/15 11:37:24;;;;;;;1.50;1.40;;;5.80;99.90;;;;;;4990617;28;20042;-88
2024/01/15 11:39:55;;;;;;;1.60;1.50;;;5.90;99.90;;;;;;4990585;28;20037;-88
2024/01/15 11:42:22;;;;;;;1.60;1.50;;;5.80;99.90;;;;;;4990138;28;20137;-87
2024/01/15 11:44:48;;;;;;;1.50;1.40;;;5.80;99.90;;;;;;4988043;28;20414;-87
2024/01/15 11:47:14;;;;;;;1.50;1.40;;;5.60;99.90;;;;;;4990012;28;20045;-88
2024/01/15 11:49:56;;;;;;;1.60;1.50;;;5.70;99.90;;;;;;4988900;28;20473;-87
2024/01/15 11:52:22;;;;;;;1.50;1.40;;;5.60;99.90;;;;;;4990784;28;20505;-87
2024/01/15 11:55:07;;;;;;;1.55;1.45;;;5.60;99.90;;;;;;4990257;28;20140;-88
2024/01/15 11:57:45;;;;;;;1.60;1.50;;;5.70;99.90;;;;;;4991823;28;20794;-87
2024/01/15 12:00:12;;;;;;;1.50;1.40;;;5.90;99.90;;;;;;4990662;28;20111;-88
2024/01/15 12:02:42;;;;;;;1.58;1.48;;;6.10;99.90;;;;;;4988789;28;20049;-87
2024/01/15 12:05:13;;;;;;;1.60;1.50;;;6.20;99.90;;;;;;4990185;28;20057;-88
2024/01/15 12:07:39;;;;;;;1.70;1.60;;;6.20;99.90;;;;;;4990429;28;20050;-87
2024/01/15 12:10:18;;;;;;;1.67;1.58;;;6.00;99.90;;;;;;4970680;28;20057;-88
2024/01/15 12:13:01;;;;;;;1.70;1.60;;;6.00;99.90;;;;;;4989269;28;20088;-88
2024/01/15 12:15:28;;;;;;;;;;;5.90;99.90;;;;;;4989264;28;20400;-87
2024/01/15 12:17:59;;;;;;;1.50;1.40;;;6.00;99.90;;;;;;4990964;28;20353;-88
2024/01/15 12:20:26;;;;;;;1.50;1.40;;;6.00;99.90;;;;;;4994126;28;20041;-89
2024/01/15 12:22:51;;;;;;;1.60;1.50;;;6.00;99.90;;;;;;4974951;28;20045;-88
2024/01/15 12:25:17;;;;;;;1.60;1.50;;;6.00;99.90;;;;;;4978359;28;20049;-88
2024/01/15 12:27:43;;;;;;;1.70;1.60;;;6.10;99.90;;;;;;4979799;28;20480;-89
2024/01/15 12:30:13;;;;;;;1.70;1.60;;;5.90;99.90;;;;;;4976084;28;20041;-87
2024/01/15 12:32:40;;;;;;;1.60;1.50;;;5.80;99.90;;;;;;4978663;28;20103;-88
2024/01/15 12:35:06;;;;;;;1.60;1.50;;;5.80;99.90;;;;;;4994865;28;20061;-89
2024/01/15 12:37:32;;;;;;;1.50;1.40;;;5.80;99.90;;;;;;4992416;28;20092;-88
2024/01/15 12:39:59;;;;;;;1.50;1.40;;;5.50;99.90;;;;;;4993291;28;20132;-88
2024/01/15 12:42:25;;;;;;;1.30;1.30;;;5.40;99.90;;;;;;4988987;28;20053;-86
2024/01/15 12:44:50;;;;;;;1.30;1.30;;;5.30;99.90;;;;;;4989176;28;20042;-85
2024/01/15 12:47:18;;;;;;;1.30;1.30;;;5.00;99.90;;;;;;4992024;28;20038;-84
2024/01/15 12:49:50;;;;;;;1.30;1.30;;;4.90;99.90;;;;;;4989454;28;20450;-85
2024/01/15 12:52:18;;;;;;;1.40;1.30;;;5.00;99.90;;;;;;4990383;28;20050;-85
2024/01/15 12:54:44;;;;;;;1.35;1.33;;;5.00;99.90;;;;;;4984373;28;20081;-84
2024/01/15 12:57:10;;;;;;;1.30;1.30;;;5.00;99.90;;;;;;4978876;28;20816;-84